Time;durP1;ratioP1;P1;durP2;ratioP2;P2;SDS_P1;SDS_P2;PMS_P1;PMS_P2;Temp;Humidity;BMP_temperature;BMP_pressure;BME280_temperature;BME280_humidity;BME280_pressure;Samples;Min_cycle;Max_cycle;Signal;HPM_P1;HPM_P2
2022/08/15 00:01:24;;;;;;;8.80;5.40;;;24.40;84.40;;;;;;5032291;28;20556;-69
2022/08/15 00:03:53;;;;;;;7.45;5.40;;;24.30;84.40;;;;;;5032391;28;20641;-69
2022/08/15 00:06:29;;;;;;;6.80;5.47;;;24.30;84.40;;;;;;5047598;28;20037;-69
2022/08/15 00:09:00;;;;;;;6.60;5.15;;;24.30;84.50;;;;;;5032159;28;20033;-68
2022/08/15 00:11:36;;;;;;;6.45;5.63;;;24.30;84.80;;;;;;5032338;28;20029;-69
2022/08/15 00:14:09;;;;;;;6.72;5.53;;;24.20;84.90;;;;;;5032198;28;20709;-69
2022/08/15 00:16:38;;;;;;;6.60;5.10;;;24.20;85.20;;;;;;5032444;28;20048;-69
2022/08/15 00:19:08;;;;;;;8.45;5.03;;;24.20;85.60;;;;;;5032486;28;20034;-69
2022/08/15 00:21:41;;;;;;;8.18;5.70;;;24.20;85.90;;;;;;5033653;28;20029;-69
2022/08/15 00:24:08;;;;;;;7.28;5.85;;;24.20;86.20;;;;;;5032460;28;20053;-69
2022/08/15 00:26:34;;;;;;;6.03;5.18;;;24.20;86.60;;;;;;5033972;28;20033;-69
2022/08/15 00:29:03;;;;;;;9.40;5.32;;;24.20;86.50;;;;;;5031857;28;20485;-70
2022/08/15 00:31:31;;;;;;;7.63;5.45;;;24.20;86.60;;;;;;5031977;28;20417;-70
2022/08/15 00:33:59;;;;;;;6.40;5.35;;;24.20;86.80;;;;;;5031825;28;20584;-69
2022/08/15 00:36:26;;;;;;;6.07;5.32;;;24.20;87.20;;;;;;5030355;28;20117;-70
2022/08/15 00:38:52;;;;;;;6.68;5.63;;;24.20;87.40;;;;;;5031464;28;20022;-69
2022/08/15 00:44:23;;;;;;;6.00;5.40;;;24.20;87.90;;;;;;5031643;28;20037;-68
2022/08/15 00:47:04;;;;;;;11.02;5.80;;;24.20;87.90;;;;;;5031398;28;20029;-68
2022/08/15 00:49:33;;;;;;;9.13;5.68;;;24.10;88.00;;;;;;5031341;28;20033;-68
2022/08/15 00:52:01;;;;;;;6.55;5.03;;;24.00;88.30;;;;;;5031520;28;20041;-68
2022/08/15 00:54:32;;;;;;;7.20;5.80;;;24.00;88.20;;;;;;5081078;22;20049;-78
2022/08/15 00:57:02;;;;;;;6.95;5.07;;;23.90;87.90;;;;;;5049805;28;20425;-79
2022/08/15 00:59:32;;;;;;;6.22;5.35;;;23.90;87.00;;;;;;5050741;28;20028;-77
2022/08/15 01:02:01;;;;;;;7.57;5.22;;;24.00;86.30;;;;;;5050221;28;20056;-78
2022/08/15 01:04:27;;;;;;;5.50;4.82;;;24.00;85.70;;;;;;5051010;28;20503;-79
2022/08/15 01:06:58;;;;;;;6.00;5.05;;;24.00;85.40;;;;;;5049412;28;20061;-78
2022/08/15 01:09:25;;;;;;;6.38;5.15;;;24.00;85.10;;;;;;5066294;28;20493;-78
2022/08/15 01:11:54;;;;;;;6.10;5.43;;;24.00;84.70;;;;;;5051266;28;20057;-78
2022/08/15 01:14:21;;;;;;;6.53;5.25;;;24.00;84.50;;;;;;5050651;28;20093;-79
2022/08/15 01:16:48;;;;;;;7.65;5.45;;;24.00;83.90;;;;;;5049564;28;20107;-79
2022/08/15 01:19:19;;;;;;;8.18;5.30;;;24.10;83.20;;;;;;5050604;28;20025;-79
2022/08/15 01:22:25;;;;;;;5.80;4.72;;;24.10;82.90;;;;;;5050581;28;20112;-79
2022/08/15 01:25:09;;;;;;;6.28;4.85;;;24.10;82.50;;;;;;5050867;28;20052;-76
2022/08/15 01:27:45;;;;;;;8.82;5.20;;;24.10;82.30;;;;;;5050736;28;20381;-77
2022/08/15 01:30:15;;;;;;;7.63;5.38;;;24.10;82.00;;;;;;5050421;28;20029;-77
2022/08/15 01:32:42;;;;;;;6.10;5.30;;;24.10;81.90;;;;;;5049228;28;20029;-77
2022/08/15 01:35:10;;;;;;;7.20;4.90;;;24.10;81.80;;;;;;5049531;28;20048;-77
2022/08/15 01:37:40;;;;;;;7.77;5.57;;;24.10;81.90;;;;;;5049090;28;20025;-77
2022/08/15 01:40:28;;;;;;;7.00;5.07;;;24.00;81.80;;;;;;5050385;28;20021;-77
2022/08/15 01:42:57;;;;;;;6.72;5.35;;;24.00;81.80;;;;;;5050509;28;20083;-77
2022/08/15 01:45:24;;;;;;;;;;;24.00;81.90;;;;;;5049535;28;20079;-77
2022/08/15 01:47:54;;;;;;;8.02;5.00;;;24.00;81.90;;;;;;5050440;28;19908;-78
2022/08/15 01:50:35;;;;;;;8.25;5.07;;;23.90;81.70;;;;;;5065696;28;20021;-77
2022/08/15 01:53:10;;;;;;;7.47;5.05;;;23.90;81.60;;;;;;5048958;28;20513;-78
2022/08/15 01:56:06;;;;;;;6.95;5.55;;;23.90;81.60;;;;;;5065574;28;20041;-77
2022/08/15 01:58:37;;;;;;;6.82;4.88;;;23.90;81.60;;;;;;5048919;28;20025;-77
2022/08/15 02:01:09;;;;;;;6.60;4.95;;;23.90;81.60;;;;;;5048980;28;20025;-78
2022/08/15 02:03:38;;;;;;;7.45;4.80;;;23.90;81.60;;;;;;5050365;28;20035;-77
2022/08/15 02:06:12;;;;;;;7.07;5.10;;;23.90;81.70;;;;;;5049007;28;20029;-78
2022/08/15 02:08:41;;;;;;;6.18;4.60;;;23.80;81.80;;;;;;5048811;28;20029;-77
2022/08/15 02:11:11;;;;;;;6.00;4.78;;;23.90;81.90;;;;;;5032568;28;20029;-78
2022/08/15 02:13:43;;;;;;;5.97;4.95;;;23.90;81.80;;;;;;5053192;28;20393;-78
2022/08/15 02:16:12;;;;;;;6.28;5.15;;;23.80;81.60;;;;;;5052957;28;20021;-77
2022/08/15 02:18:37;;;;;;;5.80;4.50;;;23.80;81.40;;;;;;5053932;28;20037;-78
2022/08/15 02:21:03;;;;;;;6.07;4.13;;;23.80;81.20;;;;;;5054112;28;20067;-78
2022/08/15 02:23:30;;;;;;;6.43;4.65;;;23.80;80.90;;;;;;5052987;28;20057;-78
2022/08/15 02:25:57;;;;;;;6.40;4.50;;;23.70;80.70;;;;;;5052638;28;20063;-77
2022/08/15 02:28:24;;;;;;;5.85;4.45;;;23.80;80.70;;;;;;5054112;28;20036;-78
2022/08/15 02:30:52;;;;;;;7.10;4.18;;;23.80;80.50;;;;;;5069089;28;20039;-78
2022/08/15 02:33:18;;;;;;;8.38;4.32;;;23.80;80.20;;;;;;5053765;28;20032;-77
2022/08/15 02:35:44;;;;;;;6.43;4.13;;;23.80;80.10;;;;;;5052753;28;20128;-78
2022/08/15 02:38:09;;;;;;;5.75;4.18;;;23.80;79.90;;;;;;5052798;28;20493;-77
2022/08/15 02:40:36;;;;;;;6.90;3.90;;;23.80;79.50;;;;;;5052556;28;20502;-78
2022/08/15 02:43:11;;;;;;;6.22;3.97;;;23.80;79.30;;;;;;5053893;28;20032;-78
2022/08/15 02:45:47;;;;;;;7.25;3.67;;;23.80;78.90;;;;;;5052374;28;20025;-78
2022/08/15 02:48:14;;;;;;;4.05;3.45;;;23.80;78.70;;;;;;5052617;28;20401;-78
2022/08/15 02:50:41;;;;;;;5.25;3.55;;;23.80;78.70;;;;;;5052231;28;20029;-78
2022/08/15 02:53:19;;;;;;;5.15;3.63;;;23.80;78.50;;;;;;5052252;28;20029;-77
2022/08/15 02:55:47;;;;;;;7.03;3.85;;;23.80;78.30;;;;;;5053554;28;20144;-78
2022/08/15 02:58:14;;;;;;;4.82;3.40;;;23.70;78.30;;;;;;5069049;28;20048;-77
2022/08/15 03:00:43;;;;;;;5.13;3.17;;;23.80;78.10;;;;;;5052337;28;20379;-77
2022/08/15 03:03:14;;;;;;;3.38;2.80;;;23.80;78.70;;;;;;5051859;28;20044;-78
2022/08/15 03:05:45;;;;;;;6.30;3.33;;;23.80;77.40;;;;;;5051853;28;20032;-77
2022/08/15 03:08:11;;;;;;;4.80;2.90;;;23.80;77.40;;;;;;5053566;28;20394;-77
2022/08/15 03:10:38;;;;;;;7.05;3.20;;;23.80;77.40;;;;;;5051509;28;20064;-78
2022/08/15 03:13:14;;;;;;;4.10;3.00;;;23.80;77.20;;;;;;5051600;28;20118;-78
2022/08/15 03:15:47;;;;;;;8.55;2.90;;;23.80;76.80;;;;;;5053158;28;20033;-78
2022/08/15 03:18:14;;;;;;;5.22;3.10;;;23.80;76.70;;;;;;5051641;28;20032;-77
2022/08/15 03:20:45;;;;;;;4.50;2.60;;;23.80;77.40;;;;;;5050967;28;20056;-78
2022/08/15 03:23:13;;;;;;;5.32;2.80;;;23.80;76.80;;;;;;5051388;28;20036;-78
2022/08/15 03:25:47;;;;;;;6.25;3.10;;;23.90;76.80;;;;;;5050497;28;20033;-78
2022/08/15 03:28:14;;;;;;;5.43;2.95;;;23.80;76.70;;;;;;5052736;28;20033;-77
2022/08/15 03:30:39;;;;;;;4.78;3.03;;;23.80;77.40;;;;;;5052294;28;20071;-78
2022/08/15 03:33:07;;;;;;;5.85;3.00;;;23.80;76.70;;;;;;5051273;28;20032;-78
2022/08/15 03:35:44;;;;;;;4.18;2.60;;;23.80;76.70;;;;;;5068175;28;20079;-78
2022/08/15 03:38:14;;;;;;;5.50;2.72;;;23.80;76.80;;;;;;5051276;28;20025;-78
2022/08/15 03:40:44;;;;;;;6.80;2.78;;;23.80;77.00;;;;;;5050992;28;20029;-78
2022/08/15 03:43:21;;;;;;;4.65;2.80;;;23.80;77.00;;;;;;5051052;28;20033;-78
2022/08/15 03:45:53;;;;;;;4.28;3.10;;;23.80;77.10;;;;;;5050961;28;20036;-78
2022/08/15 03:48:25;;;;;;;4.30;2.90;;;23.80;77.20;;;;;;5051163;28;20082;-78
2022/08/15 03:50:52;;;;;;;;;;;23.70;77.30;;;;;;5051293;28;20056;-78
2022/08/15 03:53:20;;;;;;;5.80;2.83;;;23.80;77.50;;;;;;5050753;28;19925;-78
2022/08/15 03:55:46;;;;;;;7.30;3.20;;;23.80;77.60;;;;;;5050742;28;20036;-78
2022/08/15 03:58:12;;;;;;;4.50;3.20;;;23.80;77.60;;;;;;5052066;28;20033;-78
2022/08/15 04:00:43;;;;;;;6.22;3.30;;;23.80;77.50;;;;;;5052271;28;20024;-78
2022/08/15 04:03:16;;;;;;;5.07;2.85;;;23.70;77.40;;;;;;5050671;28;20120;-78
2022/08/15 04:05:49;;;;;;;7.20;3.10;;;23.70;77.50;;;;;;5050488;28;20060;-78
2022/08/15 04:08:17;;;;;;;7.95;3.03;;;23.70;77.60;;;;;;5050737;28;20033;-78
2022/08/15 04:10:45;;;;;;;5.47;3.33;;;23.70;77.70;;;;;;5051911;28;20450;-78
2022/08/15 04:13:11;;;;;;;6.32;2.80;;;23.70;77.80;;;;;;5051906;28;20036;-79
2022/08/15 04:15:37;;;;;;;5.97;2.97;;;23.70;77.90;;;;;;5050379;28;20033;-78
2022/08/15 04:18:04;;;;;;;5.90;2.67;;;23.70;78.00;;;;;;5051986;28;20482;-78
2022/08/15 04:20:30;;;;;;;9.13;3.15;;;23.70;78.00;;;;;;5050368;28;20021;-78
2022/08/15 04:22:56;;;;;;;5.85;3.30;;;23.70;78.00;;;;;;5050223;28;20397;-78
2022/08/15 04:25:38;;;;;;;6.72;3.42;;;23.70;78.10;;;;;;5050407;28;20485;-78
2022/08/15 04:28:05;;;;;;;7.38;3.70;;;23.60;78.20;;;;;;5051691;28;20025;-78
2022/08/15 04:30:34;;;;;;;4.03;2.72;;;23.70;78.50;;;;;;5050028;28;20632;-78
2022/08/15 04:33:22;;;;;;;5.65;3.55;;;23.60;78.50;;;;;;5050017;28;20562;-78
2022/08/15 04:35:53;;;;;;;;;;;23.60;78.60;;;;;;5050501;28;20055;-78
2022/08/15 04:38:19;;;;;;;4.95;2.70;;;23.60;78.60;;;;;;5067249;28;19908;-78
2022/08/15 04:40:47;;;;;;;5.38;2.58;;;23.60;78.60;;;;;;5051253;28;20035;-78
2022/08/15 04:43:16;;;;;;;4.50;2.85;;;23.60;78.80;;;;;;5050139;28;20117;-78
2022/08/15 04:45:42;;;;;;;5.72;3.15;;;23.60;79.60;;;;;;5049796;28;20086;-78
2022/08/15 04:48:14;;;;;;;4.65;2.90;;;23.60;79.00;;;;;;5049893;28;20112;-78
2022/08/15 04:50:41;;;;;;;3.92;2.60;;;23.60;79.20;;;;;;5049706;28;20029;-78
2022/08/15 04:53:11;;;;;;;5.90;2.92;;;23.60;79.40;;;;;;5049689;28;20083;-78
2022/08/15 04:55:43;;;;;;;12.30;3.13;;;23.60;79.60;;;;;;5049652;28;20032;-78
2022/08/15 04:58:12;;;;;;;7.28;3.60;;;23.60;79.30;;;;;;5049892;28;20043;-78
2022/08/15 05:00:41;;;;;;;8.80;3.55;;;23.70;79.20;;;;;;5049593;28;20517;-78
2022/08/15 05:03:18;;;;;;;5.63;3.08;;;23.70;79.60;;;;;;5034345;28;20050;-78
2022/08/15 05:05:59;;;;;;;6.28;2.95;;;23.70;79.60;;;;;;5050861;28;20029;-77
2022/08/15 05:08:31;;;;;;;6.72;3.10;;;23.70;78.90;;;;;;5049922;28;20102;-78
2022/08/15 05:11:04;;;;;;;5.55;3.45;;;23.70;78.80;;;;;;5066240;28;20029;-78
2022/08/15 05:13:32;;;;;;;9.88;3.50;;;23.60;78.70;;;;;;5050783;28;20037;-78
2022/08/15 05:15:59;;;;;;;7.25;2.92;;;23.70;78.70;;;;;;5051079;28;20032;-78
2022/08/15 05:18:29;;;;;;;11.35;3.88;;;23.70;78.70;;;;;;5049477;28;20032;-78
2022/08/15 05:20:56;;;;;;;15.05;5.22;;;23.70;78.70;;;;;;5051004;28;20029;-78
2022/08/15 05:23:24;;;;;;;10.88;4.50;;;23.70;78.80;;;;;;5049571;28;20048;-78
2022/08/15 05:25:55;;;;;;;10.80;4.50;;;23.70;78.90;;;;;;5049315;28;20044;-78
2022/08/15 05:28:23;;;;;;;14.70;4.68;;;23.70;78.90;;;;;;5049641;28;20151;-78
2022/08/15 05:30:51;;;;;;;9.48;4.03;;;23.70;78.80;;;;;;5049262;28;20396;-78
2022/08/15 05:33:21;;;;;;;9.73;3.75;;;23.70;79.00;;;;;;5049246;28;20032;-77
2022/08/15 05:35:53;;;;;;;8.15;3.40;;;23.70;78.90;;;;;;5049269;28;20511;-78
2022/08/15 05:38:32;;;;;;;8.18;3.13;;;23.80;79.00;;;;;;5032912;28;20029;-77
2022/08/15 05:41:05;;;;;;;5.35;2.90;;;23.80;79.00;;;;;;5049094;28;20025;-78
2022/08/15 05:43:37;;;;;;;5.93;2.90;;;23.80;79.00;;;;;;5049265;28;20320;-78
2022/08/15 05:46:22;;;;;;;7.60;2.97;;;23.70;78.90;;;;;;5065784;28;20043;-78
2022/08/15 05:48:59;;;;;;;8.27;3.03;;;23.80;79.00;;;;;;5052520;28;20180;-78
2022/08/15 05:51:47;;;;;;;7.93;3.47;;;23.80;78.80;;;;;;5053201;28;20086;-78
2022/08/15 05:54:23;;;;;;;7.43;2.78;;;23.80;78.70;;;;;;5069763;28;20393;-78
2022/08/15 05:57:09;;;;;;;5.30;2.80;;;23.80;78.80;;;;;;5053331;28;20071;-78
2022/08/15 05:59:40;;;;;;;8.75;2.90;;;23.80;78.70;;;;;;5053161;28;20025;-79
2022/08/15 06:02:17;;;;;;;14.18;4.05;;;23.80;78.90;;;;;;5036580;28;20033;-79
2022/08/15 06:04:53;;;;;;;8.80;3.20;;;23.80;79.00;;;;;;5069892;28;20052;-78
2022/08/15 06:07:20;;;;;;;5.72;2.65;;;23.80;78.80;;;;;;5052975;28;20486;-79
2022/08/15 06:09:56;;;;;;;;;;;23.90;78.90;;;;;;5053272;28;20040;-78
2022/08/15 06:12:46;;;;;;;10.73;3.50;;;23.90;78.90;;;;;;5069892;28;19908;-78
2022/08/15 06:15:58;;;;;;;5.95;2.80;;;23.90;78.90;;;;;;5052964;28;20032;-78
2022/08/15 06:18:27;;;;;;;9.43;3.22;;;23.90;79.10;;;;;;5011877;28;20032;-78
2022/08/15 06:20:58;;;;;;;;;;;23.90;79.30;;;;;;5058619;28;20094;-78
2022/08/15 06:23:34;;;;;;;8.07;2.97;;;23.90;79.30;;;;;;5052878;28;19909;-78
2022/08/15 06:26:31;;;;;;;7.13;3.42;;;23.90;79.40;;;;;;5069437;28;20029;-78
2022/08/15 06:29:22;;;;;;;7.30;2.75;;;23.90;79.30;;;;;;5069300;28;20489;-78
2022/08/15 06:31:58;;;;;;;10.00;3.22;;;23.90;79.40;;;;;;5052596;28;20067;-78
2022/08/15 06:35:04;;;;;;;5.82;2.90;;;23.90;79.40;;;;;;5052750;28;20436;-78
2022/08/15 06:37:59;;;;;;;5.40;2.50;;;23.90;79.40;;;;;;5052386;28;20116;-78
2022/08/15 06:40:58;;;;;;;8.02;2.65;;;23.90;79.50;;;;;;5069055;28;20021;-78
2022/08/15 06:43:24;;;;;;;5.40;2.75;;;23.90;79.60;;;;;;5053980;28;20128;-78
2022/08/15 06:46:27;;;;;;;6.05;2.60;;;23.90;79.70;;;;;;5019610;28;20025;-77
2022/08/15 06:48:54;;;;;;;7.35;2.65;;;24.00;79.90;;;;;;5052632;28;20037;-77
2022/08/15 06:51:20;;;;;;;6.18;2.58;;;24.00;80.00;;;;;;5052573;28;20053;-78
2022/08/15 06:53:53;;;;;;;5.75;2.40;;;24.00;80.90;;;;;;5068902;22;20424;-68
2022/08/15 06:56:35;;;;;;;6.60;2.55;;;24.00;80.50;;;;;;5072175;28;20056;-68
2022/08/15 06:59:19;;;;;;;8.73;3.10;;;24.00;80.50;;;;;;5070576;28;20043;-68
2022/08/15 07:01:58;;;;;;;4.72;2.88;;;24.00;80.50;;;;;;5073420;28;20028;-68
2022/08/15 07:04:44;;;;;;;5.95;2.60;;;24.00;80.60;;;;;;5072371;28;20028;-68
2022/08/15 07:07:17;;;;;;;4.90;2.47;;;24.00;80.80;;;;;;5071983;28;20028;-68
2022/08/15 07:10:07;;;;;;;11.73;2.65;;;24.00;80.80;;;;;;5071829;28;20028;-68
2022/08/15 07:12:52;;;;;;;9.02;2.63;;;24.00;81.00;;;;;;5071873;28;20032;-69
2022/08/15 07:15:51;;;;;;;5.13;2.38;;;24.00;81.20;;;;;;5071902;28;20033;-68
2022/08/15 07:18:36;;;;;;;;;;;23.90;81.40;;;;;;5072316;28;20193;-68
2022/08/15 07:21:11;;;;;;;6.30;3.05;;;24.00;81.60;;;;;;5071605;28;19908;-68
2022/08/15 07:24:07;;;;;;;6.25;2.30;;;23.90;82.40;;;;;;5071935;28;20033;-67
2022/08/15 07:26:55;;;;;;;7.10;2.70;;;23.90;82.10;;;;;;5071659;28;20397;-68
2022/08/15 07:29:58;;;;;;;7.80;2.70;;;24.00;82.20;;;;;;5072772;28;20051;-68
2022/08/15 07:32:50;;;;;;;8.90;2.67;;;24.00;82.30;;;;;;5062961;28;20149;-68
2022/08/15 07:35:17;;;;;;;7.50;2.85;;;24.00;82.20;;;;;;5071380;28;20493;-68
2022/08/15 07:37:48;;;;;;;6.32;2.50;;;24.00;82.30;;;;;;5071709;28;20499;-68
2022/08/15 07:40:26;;;;;;;8.50;2.70;;;24.00;82.30;;;;;;5072414;28;20413;-67
2022/08/15 07:42:52;;;;;;;9.10;3.20;;;24.00;82.40;;;;;;5071352;28;20382;-68
2022/08/15 07:45:29;;;;;;;5.88;2.47;;;24.10;82.50;;;;;;5071227;28;20048;-68
2022/08/15 07:48:20;;;;;;;6.53;2.90;;;24.00;82.70;;;;;;5071197;28;20433;-68
2022/08/15 07:51:16;;;;;;;6.50;2.45;;;24.10;82.70;;;;;;5070954;28;20036;-67
2022/08/15 07:54:12;;;;;;;7.50;2.80;;;24.10;82.70;;;;;;5071114;28;20060;-68
2022/08/15 07:56:58;;;;;;;7.15;2.70;;;24.20;82.80;;;;;;5071031;28;20542;-68
2022/08/15 07:59:30;;;;;;;9.75;2.65;;;24.20;83.00;;;;;;5070788;28;20625;-68
2022/08/15 08:02:29;;;;;;;4.63;2.40;;;24.20;83.00;;;;;;5070887;28;20029;-68
2022/08/15 08:05:00;;;;;;;6.80;2.65;;;24.20;83.00;;;;;;5070896;28;20034;-68
2022/08/15 08:07:49;;;;;;;6.50;2.60;;;24.30;82.90;;;;;;5070696;28;20433;-68
2022/08/15 08:10:40;;;;;;;8.52;2.72;;;24.30;83.50;;;;;;5070229;28;20031;-68
2022/08/15 08:13:11;;;;;;;7.60;3.08;;;24.30;82.70;;;;;;5070666;28;20491;-68
2022/08/15 08:16:02;;;;;;;7.55;2.92;;;24.30;82.80;;;;;;5070595;28;20080;-68
2022/08/15 08:18:53;;;;;;;9.05;2.92;;;24.30;82.70;;;;;;5070705;28;20025;-68
2022/08/15 08:21:29;;;;;;;5.97;2.63;;;24.30;82.70;;;;;;5070410;28;20024;-68
2022/08/15 08:24:04;;;;;;;5.70;3.08;;;24.40;82.80;;;;;;5070527;28;20063;-68
2022/08/15 08:26:53;;;;;;;10.23;3.55;;;24.40;82.70;;;;;;5070384;28;20035;-68
2022/08/15 08:29:31;;;;;;;7.05;3.00;;;24.40;82.50;;;;;;5071455;28;20413;-68
2022/08/15 08:32:33;;;;;;;9.68;3.50;;;24.40;82.70;;;;;;5070370;28;20061;-68
2022/08/15 08:35:20;;;;;;;5.55;2.88;;;24.50;82.80;;;;;;5019443;28;20071;-68
2022/08/15 08:38:00;;;;;;;7.50;3.30;;;24.40;82.90;;;;;;5071521;28;20275;-68
2022/08/15 08:43:49;;;;;;;7.15;3.33;;;24.50;82.70;;;;;;5071440;28;20047;-68
2022/08/15 08:46:33;;;;;;;7.97;3.65;;;24.50;82.60;;;;;;5071198;28;20036;-68
2022/08/15 08:49:02;;;;;;;5.88;3.33;;;24.60;82.80;;;;;;5069957;28;20034;-68
2022/08/15 08:51:42;;;;;;;11.95;4.13;;;24.60;82.70;;;;;;5071264;28;20484;-68
2022/08/15 08:54:17;;;;;;;7.03;3.30;;;24.70;82.80;;;;;;5071153;28;20032;-68
2022/08/15 08:56:47;;;;;;;9.82;4.22;;;24.70;82.90;;;;;;5069816;28;20062;-68
2022/08/15 08:59:20;;;;;;;8.75;3.40;;;24.70;83.00;;;;;;5070973;28;20082;-68
2022/08/15 09:01:58;;;;;;;6.50;3.00;;;24.70;83.00;;;;;;5071378;28;20036;-68
2022/08/15 09:04:41;;;;;;;6.57;2.90;;;24.70;82.70;;;;;;5071229;28;20047;-68
2022/08/15 09:07:10;;;;;;;9.38;3.58;;;24.70;82.70;;;;;;5071023;28;20098;-68
2022/08/15 09:09:40;;;;;;;7.15;3.70;;;24.80;82.60;;;;;;5071219;28;20035;-68
2022/08/15 09:15:12;;;;;;;7.68;3.53;;;24.80;82.70;;;;;;5071117;28;20056;-68
2022/08/15 09:17:41;;;;;;;6.40;3.33;;;24.90;83.00;;;;;;5070969;28;20141;-68
2022/08/15 09:20:13;;;;;;;7.60;3.80;;;25.00;82.90;;;;;;5070715;28;20544;-68
2022/08/15 09:22:39;;;;;;;11.80;3.88;;;25.00;83.40;;;;;;5070473;28;20042;-68
2022/08/15 09:25:07;;;;;;;9.75;4.38;;;25.10;82.50;;;;;;5070899;28;20029;-68
2022/08/15 09:27:40;;;;;;;7.95;3.67;;;25.10;82.40;;;;;;5071289;28;20052;-68
2022/08/15 09:30:11;;;;;;;9.68;3.72;;;25.10;82.30;;;;;;5070831;28;20052;-68
2022/08/15 09:32:37;;;;;;;9.82;5.03;;;25.10;82.30;;;;;;5071020;28;20059;-68
2022/08/15 09:35:22;;;;;;;9.68;4.70;;;25.10;82.20;;;;;;5070913;28;20410;-68
2022/08/15 09:38:06;;;;;;;9.55;4.68;;;25.10;82.30;;;;;;5070699;28;20546;-68
2022/08/15 09:41:14;;;;;;;10.40;5.38;;;25.10;82.30;;;;;;5070596;28;20040;-69
2022/08/15 09:43:43;;;;;;;12.77;5.25;;;25.10;82.60;;;;;;5070856;28;20051;-68
2022/08/15 09:46:46;;;;;;;9.35;4.30;;;25.10;82.70;;;;;;5070968;28;20020;-69
2022/08/15 09:49:40;;;;;;;7.63;3.75;;;25.10;83.20;;;;;;5070767;28;20032;-69
2022/08/15 09:52:21;;;;;;;10.30;3.72;;;25.00;83.00;;;;;;5070965;28;20039;-68
2022/08/15 09:54:56;;;;;;;7.68;3.38;;;25.00;83.20;;;;;;5069487;28;20481;-69
2022/08/15 09:57:28;;;;;;;7.70;3.60;;;25.00;83.20;;;;;;5070816;28;20530;-69
2022/08/15 10:00:20;;;;;;;8.10;3.60;;;24.90;83.50;;;;;;5070437;28;20055;-69
2022/08/15 10:02:50;;;;;;;5.68;3.03;;;24.90;83.60;;;;;;5070771;28;20025;-69
2022/08/15 10:05:24;;;;;;;7.13;3.92;;;24.90;83.80;;;;;;5070365;28;20541;-69
2022/08/15 10:07:56;;;;;;;7.20;3.53;;;24.80;84.10;;;;;;5070476;28;20029;-69
2022/08/15 10:10:34;;;;;;;9.20;3.53;;;24.90;84.00;;;;;;5070233;28;20227;-69
2022/08/15 10:13:37;;;;;;;9.00;3.85;;;24.90;84.00;;;;;;5070420;28;20078;-69
2022/08/15 10:16:04;;;;;;;7.63;3.65;;;24.90;84.00;;;;;;5070337;28;20024;-69
2022/08/15 10:18:39;;;;;;;11.40;3.35;;;24.90;84.10;;;;;;5070543;28;20029;-69
2022/08/15 10:21:30;;;;;;;8.70;3.92;;;24.90;84.30;;;;;;5070785;28;20419;-69
2022/08/15 10:23:56;;;;;;;9.18;4.00;;;24.90;84.30;;;;;;5070433;28;20515;-69
2022/08/15 10:26:29;;;;;;;12.32;5.28;;;24.90;84.50;;;;;;5070043;28;20060;-69
2022/08/15 10:29:08;;;;;;;11.52;4.05;;;24.90;84.70;;;;;;5070187;28;20032;-69
2022/08/15 10:31:43;;;;;;;13.05;4.10;;;25.00;84.90;;;;;;5070267;28;20112;-69
2022/08/15 10:34:35;;;;;;;7.53;4.03;;;25.00;84.90;;;;;;5071968;28;20024;-69
2022/08/15 10:37:19;;;;;;;8.70;4.50;;;25.10;84.70;;;;;;5073762;28;20106;-69
2022/08/15 10:40:06;;;;;;;7.75;4.65;;;25.00;84.90;;;;;;5073665;28;20021;-69
2022/08/15 10:42:47;;;;;;;9.25;4.20;;;25.00;85.00;;;;;;5073894;28;20376;-69
2022/08/15 10:45:47;;;;;;;11.32;4.55;;;25.00;84.80;;;;;;5072625;28;20037;-69
2022/08/15 10:48:24;;;;;;;10.25;4.28;;;25.00;85.10;;;;;;5073614;28;20046;-68
2022/08/15 10:51:21;;;;;;;14.30;4.32;;;25.10;85.20;;;;;;5073586;28;20044;-69
2022/08/15 10:54:15;;;;;;;10.82;5.57;;;25.10;85.00;;;;;;5073317;28;20033;-69
2022/08/15 10:56:42;;;;;;;7.35;3.80;;;25.10;85.10;;;;;;5072146;28;20519;-69
2022/08/15 10:59:19;;;;;;;9.65;4.20;;;25.10;84.90;;;;;;5073385;28;20020;-69
2022/08/15 11:01:48;;;;;;;11.35;4.85;;;25.10;85.00;;;;;;5072232;28;20230;-69
2022/08/15 11:04:30;;;;;;;9.82;5.03;;;25.10;85.10;;;;;;5072441;28;20028;-69
2022/08/15 11:06:56;;;;;;;12.55;4.70;;;25.00;85.70;;;;;;5073460;28;20153;-69
2022/08/15 11:09:23;;;;;;;11.55;4.38;;;25.10;85.30;;;;;;5073133;28;20068;-69
2022/08/15 11:11:57;;;;;;;11.50;5.30;;;25.00;85.30;;;;;;5073206;28;20051;-69
2022/08/15 11:14:29;;;;;;;11.75;5.20;;;25.00;85.40;;;;;;5073191;28;20028;-69
2022/08/15 11:16:58;;;;;;;15.02;5.40;;;25.00;85.80;;;;;;5073099;28;20058;-69
2022/08/15 11:19:32;;;;;;;9.90;4.97;;;24.90;86.10;;;;;;5072882;28;20055;-69
2022/08/15 11:22:01;;;;;;;11.50;4.95;;;24.90;86.20;;;;;;5073133;28;20185;-69
2022/08/15 11:24:30;;;;;;;8.85;5.05;;;24.90;86.40;;;;;;5071568;28;20070;-69
2022/08/15 11:27:16;;;;;;;9.65;4.60;;;24.90;86.90;;;;;;5072911;28;20048;-69
2022/08/15 11:29:44;;;;;;;10.73;5.30;;;24.90;87.40;;;;;;5072673;28;20500;-69
2022/08/15 11:32:21;;;;;;;9.93;4.93;;;24.90;87.60;;;;;;5072908;28;20375;-69
2022/08/15 11:34:47;;;;;;;9.65;4.10;;;24.80;87.60;;;;;;5072605;28;20452;-69
2022/08/15 11:37:28;;;;;;;8.20;4.03;;;24.80;87.50;;;;;;5071443;28;20397;-68
2022/08/15 11:40:07;;;;;;;8.13;4.53;;;24.80;87.80;;;;;;5071200;28;20024;-69
2022/08/15 11:42:42;;;;;;;10.90;5.30;;;24.80;88.00;;;;;;5072611;28;20032;-69
2022/08/15 11:45:18;;;;;;;9.57;4.00;;;24.70;88.00;;;;;;5070738;28;20085;-69
2022/08/15 11:47:48;;;;;;;8.30;4.75;;;24.70;88.10;;;;;;5072453;28;20032;-69
2022/08/15 11:50:28;;;;;;;6.93;4.13;;;24.70;88.10;;;;;;5072404;28;20508;-69
2022/08/15 11:53:03;;;;;;;7.40;4.28;;;24.70;88.20;;;;;;5072355;28;20039;-69
2022/08/15 11:55:32;;;;;;;11.73;4.78;;;24.70;88.30;;;;;;5071070;28;20051;-69
2022/08/15 11:58:17;;;;;;;8.43;4.82;;;24.70;87.70;;;;;;5072144;28;20028;-69
2022/08/15 12:00:50;;;;;;;7.47;4.15;;;24.80;88.00;;;;;;5071798;28;20392;-69
2022/08/15 12:03:35;;;;;;;8.43;3.95;;;24.70;87.90;;;;;;5071781;28;20033;-69
2022/08/15 12:06:13;;;;;;;6.55;4.10;;;24.70;87.80;;;;;;5072126;28;20444;-69
2022/08/15 12:08:41;;;;;;;8.73;4.25;;;24.80;88.10;;;;;;5070664;28;20107;-69
2022/08/15 12:11:22;;;;;;;7.18;4.25;;;24.80;88.10;;;;;;5071912;28;20082;-69
2022/08/15 12:13:56;;;;;;;8.10;4.22;;;24.80;88.00;;;;;;5070606;28;20093;-70
2022/08/15 12:16:49;;;;;;;6.65;3.92;;;24.80;87.80;;;;;;5071726;28;20025;-69
2022/08/15 12:19:47;;;;;;;11.48;4.38;;;24.80;87.70;;;;;;5059642;28;20033;-68
2022/08/15 12:22:39;;;;;;;10.55;4.63;;;24.80;87.70;;;;;;5071259;28;20078;-68
2022/08/15 12:25:07;;;;;;;8.48;4.30;;;24.80;87.60;;;;;;5071820;28;20035;-68
2022/08/15 12:27:37;;;;;;;8.43;4.47;;;24.70;87.90;;;;;;5071797;28;20033;-68
2022/08/15 12:30:09;;;;;;;8.13;4.20;;;24.70;88.00;;;;;;5070291;28;20039;-68
2022/08/15 12:32:35;;;;;;;10.43;4.47;;;24.70;88.20;;;;;;5070364;28;20120;-69
2022/08/15 12:35:03;;;;;;;6.47;3.95;;;24.70;88.30;;;;;;5071588;28;20044;-69
2022/08/15 12:37:29;;;;;;;8.43;3.83;;;24.70;88.00;;;;;;5070190;28;20473;-69
2022/08/15 12:39:58;;;;;;;6.10;3.70;;;24.70;87.80;;;;;;5071332;28;20021;-69
2022/08/15 12:42:30;;;;;;;8.45;4.15;;;24.80;87.70;;;;;;5071380;28;20033;-69
2022/08/15 12:45:13;;;;;;;7.88;4.28;;;24.80;87.70;;;;;;5071433;28;20107;-69
2022/08/15 12:47:40;;;;;;;9.80;4.15;;;24.80;87.50;;;;;;5070045;28;20082;-68
2022/08/15 12:50:08;;;;;;;9.35;4.03;;;24.80;87.80;;;;;;5071096;28;20036;-69
2022/08/15 12:52:36;;;;;;;7.15;4.38;;;24.80;87.90;;;;;;5071277;28;20032;-69
2022/08/15 12:55:04;;;;;;;14.63;4.78;;;24.80;88.30;;;;;;5094216;22;20090;-71
2022/08/15 12:57:30;;;;;;;10.55;4.43;;;24.80;88.80;;;;;;5090512;28;20103;-71
2022/08/15 12:59:56;;;;;;;7.82;4.53;;;24.70;89.90;;;;;;5091295;28;20031;-71
2022/08/15 13:02:24;;;;;;;7.38;4.20;;;24.70;90.00;;;;;;5091286;28;20059;-71
2022/08/15 13:04:55;;;;;;;10.75;4.82;;;24.70;89.90;;;;;;5091431;28;20020;-71
2022/08/15 13:07:24;;;;;;;18.27;7.78;;;24.70;89.40;;;;;;5089994;28;20032;-71
2022/08/15 13:09:50;;;;;;;10.18;6.50;;;24.70;89.30;;;;;;5090956;28;20472;-71
2022/08/15 13:12:17;;;;;;;22.23;6.28;;;24.70;89.20;;;;;;5091249;28;20031;-70
2022/08/15 13:14:44;;;;;;;17.10;7.05;;;24.70;89.20;;;;;;5091007;28;20085;-71
2022/08/15 13:17:12;;;;;;;12.60;7.55;;;24.70;89.00;;;;;;5090943;28;20035;-71
2022/08/15 13:25:15;;;;;;;7.85;4.22;;;24.70;88.60;;;;;;5091150;28;20312;-71
2022/08/15 13:27:44;;;;;;;7.80;4.53;;;24.80;88.40;;;;;;5091000;28;20028;-71
2022/08/15 13:30:12;;;;;;;6.63;3.95;;;24.70;88.50;;;;;;5090754;28;20538;-71
2022/08/15 13:32:38;;;;;;;9.15;4.68;;;24.80;88.40;;;;;;5091057;28;20406;-71
2022/08/15 13:35:06;;;;;;;6.82;4.35;;;24.80;88.30;;;;;;5090888;28;20031;-71
2022/08/15 13:37:32;;;;;;;11.40;4.85;;;24.80;88.60;;;;;;5090862;28;20511;-71
2022/08/15 13:39:58;;;;;;;8.60;4.95;;;24.80;88.30;;;;;;5090649;28;20477;-71
2022/08/15 13:42:25;;;;;;;6.78;4.18;;;24.80;88.20;;;;;;5090874;28;20046;-71